sensor_id;sensor_type;location;lat;lon;timestamp;P1;durP1;ratioP1;P2;durP2;ratioP2
68097;SDS011;54886;47.036;15.466;2023-07-31T00:01:27;4.43;;;1.90;;
68097;SDS011;54886;47.036;15.466;2023-07-31T00:03:52;2.97;;;1.80;;
68097;SDS011;54886;47.036;15.466;2023-07-31T00:06:18;5.50;;;2.00;;
68097;SDS011;54886;47.036;15.466;2023-07-31T00:12:05;2.35;;;1.75;;
68097;SDS011;54886;47.036;15.466;2023-07-31T00:14:31;2.80;;;1.80;;
68097;SDS011;54886;47.036;15.466;2023-07-31T00:20:18;4.75;;;1.95;;
68097;SDS011;54886;47.036;15.466;2023-07-31T00:26:05;1.95;;;1.63;;
68097;SDS011;54886;47.036;15.466;2023-07-31T00:31:53;3.97;;;1.85;;
68097;SDS011;54886;47.036;15.466;2023-07-31T00:37:40;4.55;;;2.10;;
68097;SDS011;54886;47.036;15.466;2023-07-31T00:40:06;3.30;;;2.00;;
68097;SDS011;54886;47.036;15.466;2023-07-31T00:42:32;3.13;;;1.92;;
68097;SDS011;54886;47.036;15.466;2023-07-31T00:48:19;3.08;;;1.90;;
68097;SDS011;54886;47.036;15.466;2023-07-31T00:50:45;4.63;;;2.00;;
68097;SDS011;54886;47.036;15.466;2023-07-31T00:53:11;4.07;;;1.90;;
68097;SDS011;54886;47.036;15.466;2023-07-31T00:55:36;3.42;;;1.98;;
68097;SDS011;54886;47.036;15.466;2023-07-31T00:58:02;4.70;;;2.05;;
68097;SDS011;54886;47.036;15.466;2023-07-31T01:00:27;3.78;;;1.92;;
68097;SDS011;54886;47.036;15.466;2023-07-31T01:02:53;5.53;;;1.90;;
68097;SDS011;54886;47.036;15.466;2023-07-31T01:08:42;3.60;;;2.03;;
68097;SDS011;54886;47.036;15.466;2023-07-31T01:11:17;4.82;;;2.00;;
68097;SDS011;54886;47.036;15.466;2023-07-31T01:13:48;4.45;;;2.00;;
68097;SDS011;54886;47.036;15.466;2023-07-31T01:16:14;3.58;;;2.00;;
68097;SDS011;54886;47.036;15.466;2023-07-31T01:18:40;4.63;;;1.77;;
68097;SDS011;54886;47.036;15.466;2023-07-31T01:26:34;5.10;;;1.85;;
68097;SDS011;54886;47.036;15.466;2023-07-31T01:31:42;2.70;;;1.95;;
68097;SDS011;54886;47.036;15.466;2023-07-31T01:34:11;2.60;;;1.75;;
68097;SDS011;54886;47.036;15.466;2023-07-31T01:36:37;2.45;;;1.70;;
68097;SDS011;54886;47.036;15.466;2023-07-31T01:39:03;2.83;;;2.13;;
68097;SDS011;54886;47.036;15.466;2023-07-31T01:41:29;5.32;;;2.85;;
68097;SDS011;54886;47.036;15.466;2023-07-31T01:43:55;11.98;;;4.07;;
68097;SDS011;54886;47.036;15.466;2023-07-31T01:49:42;7.15;;;3.60;;
68097;SDS011;54886;47.036;15.466;2023-07-31T01:55:29;7.93;;;3.30;;
68097;SDS011;54886;47.036;15.466;2023-07-31T01:57:55;5.68;;;2.78;;
68097;SDS011;54886;47.036;15.466;2023-07-31T02:03:42;4.35;;;2.22;;
68097;SDS011;54886;47.036;15.466;2023-07-31T02:09:29;5.20;;;2.50;;
68097;SDS011;54886;47.036;15.466;2023-07-31T02:15:17;4.55;;;2.00;;
68097;SDS011;54886;47.036;15.466;2023-07-31T02:17:43;5.10;;;2.03;;
68097;SDS011;54886;47.036;15.466;2023-07-31T02:20:09;7.53;;;2.30;;
68097;SDS011;54886;47.036;15.466;2023-07-31T02:22:35;7.25;;;2.10;;
68097;SDS011;54886;47.036;15.466;2023-07-31T02:25:00;5.40;;;2.47;;
68097;SDS011;54886;47.036;15.466;2023-07-31T02:30:47;7.47;;;3.25;;
68097;SDS011;54886;47.036;15.466;2023-07-31T02:35:41;8.07;;;3.00;;
68097;SDS011;54886;47.036;15.466;2023-07-31T02:38:07;10.93;;;2.72;;
68097;SDS011;54886;47.036;15.466;2023-07-31T02:40:32;4.97;;;2.83;;
68097;SDS011;54886;47.036;15.466;2023-07-31T02:46:20;7.13;;;2.80;;
68097;SDS011;54886;47.036;15.466;2023-07-31T02:48:49;3.80;;;2.53;;
68097;SDS011;54886;47.036;15.466;2023-07-31T02:51:15;5.25;;;2.53;;
68097;SDS011;54886;47.036;15.466;2023-07-31T02:53:40;4.43;;;2.40;;
68097;SDS011;54886;47.036;15.466;2023-07-31T02:56:06;4.00;;;2.30;;
68097;SDS011;54886;47.036;15.466;2023-07-31T02:58:32;4.97;;;2.70;;
68097;SDS011;54886;47.036;15.466;2023-07-31T03:00:58;6.55;;;2.75;;
68097;SDS011;54886;47.036;15.466;2023-07-31T03:06:45;5.43;;;2.40;;
68097;SDS011;54886;47.036;15.466;2023-07-31T03:09:11;6.85;;;2.67;;
68097;SDS011;54886;47.036;15.466;2023-07-31T03:11:36;3.70;;;2.25;;
68097;SDS011;54886;47.036;15.466;2023-07-31T03:14:02;4.55;;;2.25;;
68097;SDS011;54886;47.036;15.466;2023-07-31T03:16:28;3.88;;;2.58;;
68097;SDS011;54886;47.036;15.466;2023-07-31T03:18:53;4.63;;;2.25;;
68097;SDS011;54886;47.036;15.466;2023-07-31T03:21:19;6.43;;;2.40;;
68097;SDS011;54886;47.036;15.466;2023-07-31T03:27:06;4.80;;;2.63;;
68097;SDS011;54886;47.036;15.466;2023-07-31T03:29:32;3.88;;;2.30;;
68097;SDS011;54886;47.036;15.466;2023-07-31T03:31:58;4.43;;;2.15;;
68097;SDS011;54886;47.036;15.466;2023-07-31T03:37:45;5.07;;;2.15;;
68097;SDS011;54886;47.036;15.466;2023-07-31T03:40:12;7.32;;;2.33;;
68097;SDS011;54886;47.036;15.466;2023-07-31T03:42:37;4.25;;;2.30;;
68097;SDS011;54886;47.036;15.466;2023-07-31T03:45:03;4.28;;;2.45;;
68097;SDS011;54886;47.036;15.466;2023-07-31T03:47:29;6.60;;;2.40;;
68097;SDS011;54886;47.036;15.466;2023-07-31T03:49:55;4.10;;;2.38;;
68097;SDS011;54886;47.036;15.466;2023-07-31T03:52:20;4.10;;;2.25;;
68097;SDS011;54886;47.036;15.466;2023-07-31T03:58:08;6.10;;;2.80;;
68097;SDS011;54886;47.036;15.466;2023-07-31T04:00:33;5.80;;;3.10;;
68097;SDS011;54886;47.036;15.466;2023-07-31T04:02:59;6.22;;;3.40;;
68097;SDS011;54886;47.036;15.466;2023-07-31T04:05:25;9.30;;;3.35;;
68097;SDS011;54886;47.036;15.466;2023-07-31T04:07:50;5.03;;;2.80;;
68097;SDS011;54886;47.036;15.466;2023-07-31T04:10:16;3.90;;;2.70;;
68097;SDS011;54886;47.036;15.466;2023-07-31T04:12:42;5.07;;;3.03;;
68097;SDS011;54886;47.036;15.466;2023-07-31T04:18:29;6.90;;;2.80;;
68097;SDS011;54886;47.036;15.466;2023-07-31T04:20:56;6.03;;;2.97;;
68097;SDS011;54886;47.036;15.466;2023-07-31T04:23:23;5.50;;;3.20;;
68097;SDS011;54886;47.036;15.466;2023-07-31T04:25:49;4.60;;;2.90;;
68097;SDS011;54886;47.036;15.466;2023-07-31T04:28:15;5.05;;;2.90;;
68097;SDS011;54886;47.036;15.466;2023-07-31T04:34:03;5.82;;;3.22;;
68097;SDS011;54886;47.036;15.466;2023-07-31T04:36:28;5.38;;;3.25;;
68097;SDS011;54886;47.036;15.466;2023-07-31T04:38:54;5.47;;;3.20;;
68097;SDS011;54886;47.036;15.466;2023-07-31T04:41:20;6.55;;;3.30;;
68097;SDS011;54886;47.036;15.466;2023-07-31T04:43:46;6.65;;;3.25;;
68097;SDS011;54886;47.036;15.466;2023-07-31T04:46:12;6.88;;;2.80;;
68097;SDS011;54886;47.036;15.466;2023-07-31T04:48:37;8.70;;;3.40;;
68097;SDS011;54886;47.036;15.466;2023-07-31T04:54:25;5.57;;;2.95;;
68097;SDS011;54886;47.036;15.466;2023-07-31T04:56:50;6.10;;;3.30;;
68097;SDS011;54886;47.036;15.466;2023-07-31T04:59:17;5.00;;;2.87;;
68097;SDS011;54886;47.036;15.466;2023-07-31T05:01:43;7.75;;;3.50;;
68097;SDS011;54886;47.036;15.466;2023-07-31T05:04:12;4.97;;;2.92;;
68097;SDS011;54886;47.036;15.466;2023-07-31T05:10:02;6.47;;;3.10;;
68097;SDS011;54886;47.036;15.466;2023-07-31T05:12:28;5.20;;;3.00;;
68097;SDS011;54886;47.036;15.466;2023-07-31T05:18:15;5.88;;;3.25;;
68097;SDS011;54886;47.036;15.466;2023-07-31T05:24:03;5.82;;;3.40;;
68097;SDS011;54886;47.036;15.466;2023-07-31T05:29:51;6.25;;;3.00;;
68097;SDS011;54886;47.036;15.466;2023-07-31T05:35:38;7.25;;;3.70;;
68097;SDS011;54886;47.036;15.466;2023-07-31T05:38:04;7.47;;;4.80;;
68097;SDS011;54886;47.036;15.466;2023-07-31T05:40:31;7.82;;;4.85;;
68097;SDS011;54886;47.036;15.466;2023-07-31T05:42:58;8.10;;;5.10;;
68097;SDS011;54886;47.036;15.466;2023-07-31T05:45:24;7.95;;;5.20;;
68097;SDS011;54886;47.036;15.466;2023-07-31T05:47:50;9.90;;;5.82;;
68097;SDS011;54886;47.036;15.466;2023-07-31T05:50:16;7.93;;;4.90;;
68097;SDS011;54886;47.036;15.466;2023-07-31T05:56:03;10.73;;;5.38;;
68097;SDS011;54886;47.036;15.466;2023-07-31T05:58:29;7.75;;;5.00;;
68097;SDS011;54886;47.036;15.466;2023-07-31T06:00:54;7.95;;;4.60;;
68097;SDS011;54886;47.036;15.466;2023-07-31T06:03:20;7.38;;;4.40;;
68097;SDS011;54886;47.036;15.466;2023-07-31T06:05:46;8.05;;;4.70;;
68097;SDS011;54886;47.036;15.466;2023-07-31T06:11:33;6.43;;;3.90;;
68097;SDS011;54886;47.036;15.466;2023-07-31T06:13:58;6.78;;;3.83;;
68097;SDS011;54886;47.036;15.466;2023-07-31T06:16:24;9.30;;;4.60;;
68097;SDS011;54886;47.036;15.466;2023-07-31T06:18:50;7.05;;;3.80;;
68097;SDS011;54886;47.036;15.466;2023-07-31T06:21:16;9.43;;;3.80;;
68097;SDS011;54886;47.036;15.466;2023-07-31T06:23:42;6.90;;;3.42;;
68097;SDS011;54886;47.036;15.466;2023-07-31T06:26:08;7.20;;;3.53;;
68097;SDS011;54886;47.036;15.466;2023-07-31T06:31:55;8.68;;;3.35;;
68097;SDS011;54886;47.036;15.466;2023-07-31T06:34:21;6.55;;;4.10;;
68097;SDS011;54886;47.036;15.466;2023-07-31T06:36:46;6.25;;;3.30;;
68097;SDS011;54886;47.036;15.466;2023-07-31T06:42:33;6.35;;;3.00;;
68097;SDS011;54886;47.036;15.466;2023-07-31T06:45:00;6.63;;;2.95;;
68097;SDS011;54886;47.036;15.466;2023-07-31T06:47:25;5.60;;;2.92;;
68097;SDS011;54886;47.036;15.466;2023-07-31T06:49:51;5.43;;;3.10;;
68097;SDS011;54886;47.036;15.466;2023-07-31T06:52:16;8.02;;;2.90;;
68097;SDS011;54886;47.036;15.466;2023-07-31T06:54:42;6.05;;;3.13;;
68097;SDS011;54886;47.036;15.466;2023-07-31T07:00:29;4.65;;;2.95;;
68097;SDS011;54886;47.036;15.466;2023-07-31T07:06:36;10.45;;;3.60;;
68097;SDS011;54886;47.036;15.466;2023-07-31T07:12:23;8.07;;;3.00;;
68097;SDS011;54886;47.036;15.466;2023-07-31T07:18:11;5.82;;;3.40;;
68097;SDS011;54886;47.036;15.466;2023-07-31T07:23:58;5.97;;;2.97;;
68097;SDS011;54886;47.036;15.466;2023-07-31T07:26:24;6.05;;;3.03;;
68097;SDS011;54886;47.036;15.466;2023-07-31T07:32:11;4.38;;;2.63;;
68097;SDS011;54886;47.036;15.466;2023-07-31T07:37:58;4.10;;;2.70;;
68097;SDS011;54886;47.036;15.466;2023-07-31T07:43:45;4.63;;;2.65;;
68097;SDS011;54886;47.036;15.466;2023-07-31T07:46:11;3.15;;;2.20;;
68097;SDS011;54886;47.036;15.466;2023-07-31T07:48:37;5.53;;;2.58;;
68097;SDS011;54886;47.036;15.466;2023-07-31T07:51:02;4.45;;;2.42;;
68097;SDS011;54886;47.036;15.466;2023-07-31T07:53:28;4.00;;;2.40;;
68097;SDS011;54886;47.036;15.466;2023-07-31T07:59:15;4.38;;;2.47;;
68097;SDS011;54886;47.036;15.466;2023-07-31T08:05:02;3.50;;;2.42;;
68097;SDS011;54886;47.036;15.466;2023-07-31T08:07:28;6.68;;;2.60;;
68097;SDS011;54886;47.036;15.466;2023-07-31T08:09:54;4.55;;;3.08;;
68097;SDS011;54886;47.036;15.466;2023-07-31T08:12:19;6.28;;;3.13;;
68097;SDS011;54886;47.036;15.466;2023-07-31T08:14:45;6.38;;;3.28;;
68097;SDS011;54886;47.036;15.466;2023-07-31T08:20:33;4.05;;;2.60;;
68097;SDS011;54886;47.036;15.466;2023-07-31T08:22:58;3.75;;;2.38;;
68097;SDS011;54886;47.036;15.466;2023-07-31T08:25:24;4.53;;;2.45;;
68097;SDS011;54886;47.036;15.466;2023-07-31T08:27:49;6.65;;;2.65;;
68097;SDS011;54886;47.036;15.466;2023-07-31T08:30:17;7.70;;;2.88;;
68097;SDS011;54886;47.036;15.466;2023-07-31T08:32:43;7.68;;;3.17;;
68097;SDS011;54886;47.036;15.466;2023-07-31T08:38:31;2.92;;;2.10;;
68097;SDS011;54886;47.036;15.466;2023-07-31T08:44:18;3.60;;;2.00;;
68097;SDS011;54886;47.036;15.466;2023-07-31T08:50:07;3.25;;;2.30;;
68097;SDS011;54886;47.036;15.466;2023-07-31T08:55:54;7.20;;;2.35;;
68097;SDS011;54886;47.036;15.466;2023-07-31T08:58:23;3.83;;;2.08;;
68097;SDS011;54886;47.036;15.466;2023-07-31T09:00:50;2.87;;;1.93;;
68097;SDS011;54886;47.036;15.466;2023-07-31T09:06:38;4.43;;;2.17;;
68097;SDS011;54886;47.036;15.466;2023-07-31T09:09:04;3.15;;;2.00;;
68097;SDS011;54886;47.036;15.466;2023-07-31T09:11:30;3.75;;;2.20;;
68097;SDS011;54886;47.036;15.466;2023-07-31T09:13:56;3.83;;;2.40;;
68097;SDS011;54886;47.036;15.466;2023-07-31T09:16:29;3.70;;;2.00;;
68097;SDS011;54886;47.036;15.466;2023-07-31T09:18:58;3.78;;;2.20;;
68097;SDS011;54886;47.036;15.466;2023-07-31T09:21:24;2.90;;;2.15;;
68097;SDS011;54886;47.036;15.466;2023-07-31T09:23:51;3.35;;;2.20;;
68097;SDS011;54886;47.036;15.466;2023-07-31T09:28:58;2.78;;;1.90;;
68097;SDS011;54886;47.036;15.466;2023-07-31T09:34:46;5.07;;;2.25;;
68097;SDS011;54886;47.036;15.466;2023-07-31T09:40:47;5.22;;;2.00;;
68097;SDS011;54886;47.036;15.466;2023-07-31T09:46:35;3.08;;;2.10;;
68097;SDS011;54886;47.036;15.466;2023-07-31T09:52:26;3.72;;;2.22;;
68097;SDS011;54886;47.036;15.466;2023-07-31T09:54:55;3.38;;;2.20;;
68097;SDS011;54886;47.036;15.466;2023-07-31T09:57:21;3.25;;;2.30;;
68097;SDS011;54886;47.036;15.466;2023-07-31T09:59:48;3.40;;;2.17;;
68097;SDS011;54886;47.036;15.466;2023-07-31T10:02:15;4.78;;;2.28;;
68097;SDS011;54886;47.036;15.466;2023-07-31T10:04:51;3.05;;;2.20;;
68097;SDS011;54886;47.036;15.466;2023-07-31T10:07:23;4.70;;;1.95;;
68097;SDS011;54886;47.036;15.466;2023-07-31T10:09:51;3.75;;;2.50;;
68097;SDS011;54886;47.036;15.466;2023-07-31T10:12:19;3.72;;;2.13;;
68097;SDS011;54886;47.036;15.466;2023-07-31T10:14:50;3.67;;;2.30;;
68097;SDS011;54886;47.036;15.466;2023-07-31T10:17:19;2.63;;;2.20;;
68097;SDS011;54886;47.036;15.466;2023-07-31T10:19:49;4.15;;;2.47;;
68097;SDS011;54886;47.036;15.466;2023-07-31T10:22:16;4.80;;;2.10;;
68097;SDS011;54886;47.036;15.466;2023-07-31T10:28:05;3.42;;;2.00;;
68097;SDS011;54886;47.036;15.466;2023-07-31T10:30:32;4.78;;;2.20;;
68097;SDS011;54886;47.036;15.466;2023-07-31T10:32:59;5.07;;;2.30;;
68097;SDS011;54886;47.036;15.466;2023-07-31T10:38:50;3.55;;;2.30;;
68097;SDS011;54886;47.036;15.466;2023-07-31T10:41:16;3.50;;;2.10;;
68097;SDS011;54886;47.036;15.466;2023-07-31T10:47:03;3.17;;;2.20;;
68097;SDS011;54886;47.036;15.466;2023-07-31T10:52:51;3.17;;;2.28;;
68097;SDS011;54886;47.036;15.466;2023-07-31T10:58:40;3.95;;;2.22;;
68097;SDS011;54886;47.036;15.466;2023-07-31T11:01:09;5.70;;;2.15;;
68097;SDS011;54886;47.036;15.466;2023-07-31T11:09:30;3.20;;;2.10;;
68097;SDS011;54886;47.036;15.466;2023-07-31T11:11:59;3.17;;;2.20;;
68097;SDS011;54886;47.036;15.466;2023-07-31T11:14:25;4.57;;;2.30;;
68097;SDS011;54886;47.036;15.466;2023-07-31T11:16:51;3.80;;;2.50;;
68097;SDS011;54886;47.036;15.466;2023-07-31T11:19:23;3.92;;;2.20;;
68097;SDS011;54886;47.036;15.466;2023-07-31T11:21:50;3.13;;;2.10;;
68097;SDS011;54886;47.036;15.466;2023-07-31T11:24:18;3.45;;;2.13;;
68097;SDS011;54886;47.036;15.466;2023-07-31T11:30:05;5.13;;;2.22;;
68097;SDS011;54886;47.036;15.466;2023-07-31T11:32:32;3.15;;;2.30;;
68097;SDS011;54886;47.036;15.466;2023-07-31T11:34:57;4.95;;;2.22;;
68097;SDS011;54886;47.036;15.466;2023-07-31T11:37:23;4.03;;;2.40;;
68097;SDS011;54886;47.036;15.466;2023-07-31T11:40:01;4.20;;;2.47;;
68097;SDS011;54886;47.036;15.466;2023-07-31T11:45:54;3.72;;;2.10;;
68097;SDS011;54886;47.036;15.466;2023-07-31T11:48:22;4.38;;;2.20;;
68097;SDS011;54886;47.036;15.466;2023-07-31T11:54:15;2.95;;;2.20;;
68097;SDS011;54886;47.036;15.466;2023-07-31T12:00:03;4.35;;;2.47;;
68097;SDS011;54886;47.036;15.466;2023-07-31T12:05:33;2.85;;;2.22;;
68097;SDS011;54886;47.036;15.466;2023-07-31T12:07:59;4.47;;;2.40;;
68097;SDS011;54886;47.036;15.466;2023-07-31T12:10:31;4.80;;;2.30;;
68097;SDS011;54886;47.036;15.466;2023-07-31T12:16:19;3.15;;;2.17;;
68097;SDS011;54886;47.036;15.466;2023-07-31T12:18:45;4.60;;;2.00;;
68097;SDS011;54886;47.036;15.466;2023-07-31T12:21:14;4.25;;;2.33;;
68097;SDS011;54886;47.036;15.466;2023-07-31T12:23:40;3.47;;;2.45;;
68097;SDS011;54886;47.036;15.466;2023-07-31T12:26:11;4.47;;;2.40;;
68097;SDS011;54886;47.036;15.466;2023-07-31T12:28:40;3.60;;;2.60;;
68097;SDS011;54886;47.036;15.466;2023-07-31T12:31:10;6.18;;;2.30;;
68097;SDS011;54886;47.036;15.466;2023-07-31T12:33:38;4.82;;;2.30;;
68097;SDS011;54886;47.036;15.466;2023-07-31T12:36:12;5.15;;;2.45;;
68097;SDS011;54886;47.036;15.466;2023-07-31T12:38:38;5.50;;;2.30;;
68097;SDS011;54886;47.036;15.466;2023-07-31T12:41:05;3.13;;;2.20;;
68097;SDS011;54886;47.036;15.466;2023-07-31T12:46:53;3.83;;;2.20;;
68097;SDS011;54886;47.036;15.466;2023-07-31T12:49:19;2.92;;;2.17;;
68097;SDS011;54886;47.036;15.466;2023-07-31T12:51:44;3.75;;;2.28;;
68097;SDS011;54886;47.036;15.466;2023-07-31T12:54:10;3.55;;;2.30;;
68097;SDS011;54886;47.036;15.466;2023-07-31T12:56:35;3.65;;;2.22;;
68097;SDS011;54886;47.036;15.466;2023-07-31T13:02:23;3.22;;;2.10;;
68097;SDS011;54886;47.036;15.466;2023-07-31T13:04:49;4.68;;;2.50;;
68097;SDS011;54886;47.036;15.466;2023-07-31T13:07:15;4.25;;;2.30;;
68097;SDS011;54886;47.036;15.466;2023-07-31T13:09:41;5.50;;;2.33;;
68097;SDS011;54886;47.036;15.466;2023-07-31T13:12:07;3.95;;;2.25;;
68097;SDS011;54886;47.036;15.466;2023-07-31T13:14:33;3.72;;;2.33;;
68097;SDS011;54886;47.036;15.466;2023-07-31T13:16:58;6.72;;;2.40;;
68097;SDS011;54886;47.036;15.466;2023-07-31T13:22:45;3.95;;;2.15;;
68097;SDS011;54886;47.036;15.466;2023-07-31T13:25:11;5.00;;;2.40;;
68097;SDS011;54886;47.036;15.466;2023-07-31T13:27:37;4.43;;;2.45;;
68097;SDS011;54886;47.036;15.466;2023-07-31T13:30:02;4.57;;;2.28;;
68097;SDS011;54886;47.036;15.466;2023-07-31T13:32:29;5.45;;;2.25;;
68097;SDS011;54886;47.036;15.466;2023-07-31T13:34:54;5.05;;;2.47;;
68097;SDS011;54886;47.036;15.466;2023-07-31T13:37:20;4.72;;;2.50;;
68097;SDS011;54886;47.036;15.466;2023-07-31T13:43:27;4.13;;;2.40;;
68097;SDS011;54886;47.036;15.466;2023-07-31T13:46:36;4.70;;;2.40;;
68097;SDS011;54886;47.036;15.466;2023-07-31T13:52:23;4.80;;;2.47;;
68097;SDS011;54886;47.036;15.466;2023-07-31T13:58:10;4.63;;;2.17;;
68097;SDS011;54886;47.036;15.466;2023-07-31T14:03:57;2.58;;;2.22;;
68097;SDS011;54886;47.036;15.466;2023-07-31T14:06:23;4.65;;;2.22;;
68097;SDS011;54886;47.036;15.466;2023-07-31T14:08:49;3.33;;;2.28;;
68097;SDS011;54886;47.036;15.466;2023-07-31T14:11:15;3.10;;;2.40;;
68097;SDS011;54886;47.036;15.466;2023-07-31T14:13:41;5.63;;;2.30;;
68097;SDS011;54886;47.036;15.466;2023-07-31T14:16:06;4.70;;;2.22;;
68097;SDS011;54886;47.036;15.466;2023-07-31T14:18:32;3.63;;;2.20;;
68097;SDS011;54886;47.036;15.466;2023-07-31T14:24:19;4.28;;;2.40;;
68097;SDS011;54886;47.036;15.466;2023-07-31T14:26:44;3.75;;;2.35;;
68097;SDS011;54886;47.036;15.466;2023-07-31T14:29:10;2.92;;;2.30;;
68097;SDS011;54886;47.036;15.466;2023-07-31T14:31:36;3.85;;;2.30;;
68097;SDS011;54886;47.036;15.466;2023-07-31T14:34:01;5.72;;;2.45;;
68097;SDS011;54886;47.036;15.466;2023-07-31T14:39:49;3.35;;;2.20;;
68097;SDS011;54886;47.036;15.466;2023-07-31T14:42:15;2.80;;;2.35;;
68097;SDS011;54886;47.036;15.466;2023-07-31T14:44:43;4.13;;;2.40;;
68097;SDS011;54886;47.036;15.466;2023-07-31T14:47:09;3.70;;;2.22;;
68097;SDS011;54886;47.036;15.466;2023-07-31T14:49:34;5.63;;;2.35;;
68097;SDS011;54886;47.036;15.466;2023-07-31T14:52:00;3.58;;;2.25;;
68097;SDS011;54886;47.036;15.466;2023-07-31T14:54:26;2.78;;;2.30;;
68097;SDS011;54886;47.036;15.466;2023-07-31T15:00:13;3.88;;;2.15;;
68097;SDS011;54886;47.036;15.466;2023-07-31T15:02:39;4.65;;;2.60;;
68097;SDS011;54886;47.036;15.466;2023-07-31T15:08:27;3.95;;;2.50;;
68097;SDS011;54886;47.036;15.466;2023-07-31T15:14:14;3.97;;;2.40;;
68097;SDS011;54886;47.036;15.466;2023-07-31T15:20:01;3.92;;;2.47;;
68097;SDS011;54886;47.036;15.466;2023-07-31T15:25:49;4.15;;;2.40;;
68097;SDS011;54886;47.036;15.466;2023-07-31T15:28:14;8.52;;;2.60;;
68097;SDS011;54886;47.036;15.466;2023-07-31T15:34:01;6.55;;;2.30;;
68097;SDS011;54886;47.036;15.466;2023-07-31T15:39:49;4.57;;;2.38;;
68097;SDS011;54886;47.036;15.466;2023-07-31T15:45:54;3.17;;;2.28;;
68097;SDS011;54886;47.036;15.466;2023-07-31T15:48:20;3.65;;;2.10;;
68097;SDS011;54886;47.036;15.466;2023-07-31T15:50:46;3.75;;;2.25;;
68097;SDS011;54886;47.036;15.466;2023-07-31T15:56:33;4.63;;;2.35;;
68097;SDS011;54886;47.036;15.466;2023-07-31T15:58:59;4.85;;;2.50;;
68097;SDS011;54886;47.036;15.466;2023-07-31T16:01:26;3.72;;;2.33;;
68097;SDS011;54886;47.036;15.466;2023-07-31T16:03:51;3.05;;;2.33;;
68097;SDS011;54886;47.036;15.466;2023-07-31T16:06:17;5.35;;;2.42;;
68097;SDS011;54886;47.036;15.466;2023-07-31T16:12:05;6.97;;;2.50;;
68097;SDS011;54886;47.036;15.466;2023-07-31T16:14:31;4.77;;;2.60;;
68097;SDS011;54886;47.036;15.466;2023-07-31T16:16:57;4.30;;;2.20;;
68097;SDS011;54886;47.036;15.466;2023-07-31T16:22:44;4.20;;;2.25;;
68097;SDS011;54886;47.036;15.466;2023-07-31T16:25:10;5.65;;;2.40;;
68097;SDS011;54886;47.036;15.466;2023-07-31T16:27:35;4.38;;;2.40;;
68097;SDS011;54886;47.036;15.466;2023-07-31T16:30:02;3.72;;;2.40;;
68097;SDS011;54886;47.036;15.466;2023-07-31T16:32:28;5.35;;;2.30;;
68097;SDS011;54886;47.036;15.466;2023-07-31T16:34:54;4.05;;;2.30;;
68097;SDS011;54886;47.036;15.466;2023-07-31T16:37:20;3.60;;;2.33;;
68097;SDS011;54886;47.036;15.466;2023-07-31T16:43:07;3.75;;;2.30;;
68097;SDS011;54886;47.036;15.466;2023-07-31T16:45:33;3.92;;;2.45;;
68097;SDS011;54886;47.036;15.466;2023-07-31T16:48:00;4.88;;;2.53;;
68097;SDS011;54886;47.036;15.466;2023-07-31T16:50:26;4.15;;;2.60;;
68097;SDS011;54886;47.036;15.466;2023-07-31T16:52:51;5.20;;;2.58;;
68097;SDS011;54886;47.036;15.466;2023-07-31T16:58:38;3.03;;;2.22;;
68097;SDS011;54886;47.036;15.466;2023-07-31T17:01:04;3.97;;;2.70;;
68097;SDS011;54886;47.036;15.466;2023-07-31T17:03:30;5.10;;;2.67;;
68097;SDS011;54886;47.036;15.466;2023-07-31T17:05:55;3.83;;;2.45;;
68097;SDS011;54886;47.036;15.466;2023-07-31T17:08:21;3.75;;;2.65;;
68097;SDS011;54886;47.036;15.466;2023-07-31T17:10:47;3.80;;;2.58;;
68097;SDS011;54886;47.036;15.466;2023-07-31T17:13:12;4.65;;;2.63;;
68097;SDS011;54886;47.036;15.466;2023-07-31T17:19:00;3.80;;;2.30;;
68097;SDS011;54886;47.036;15.466;2023-07-31T17:24:48;5.10;;;2.50;;
68097;SDS011;54886;47.036;15.466;2023-07-31T17:27:14;2.83;;;2.25;;
68097;SDS011;54886;47.036;15.466;2023-07-31T17:33:01;4.05;;;2.40;;
68097;SDS011;54886;47.036;15.466;2023-07-31T17:38:48;2.90;;;2.22;;
68097;SDS011;54886;47.036;15.466;2023-07-31T17:44:35;4.10;;;2.40;;
68097;SDS011;54886;47.036;15.466;2023-07-31T17:47:01;3.97;;;2.53;;
68097;SDS011;54886;47.036;15.466;2023-07-31T17:49:27;4.25;;;2.40;;
68097;SDS011;54886;47.036;15.466;2023-07-31T17:51:53;5.10;;;2.55;;
68097;SDS011;54886;47.036;15.466;2023-07-31T17:54:18;5.10;;;2.42;;
68097;SDS011;54886;47.036;15.466;2023-07-31T17:56:44;5.10;;;2.42;;
68097;SDS011;54886;47.036;15.466;2023-07-31T17:59:10;5.07;;;2.45;;
68097;SDS011;54886;47.036;15.466;2023-07-31T18:04:57;3.72;;;2.45;;
68097;SDS011;54886;47.036;15.466;2023-07-31T18:07:23;4.35;;;2.78;;
68097;SDS011;54886;47.036;15.466;2023-07-31T18:09:49;4.25;;;2.50;;
68097;SDS011;54886;47.036;15.466;2023-07-31T18:15:36;4.45;;;2.60;;
68097;SDS011;54886;47.036;15.466;2023-07-31T18:18:02;3.42;;;2.45;;
68097;SDS011;54886;47.036;15.466;2023-07-31T18:23:50;4.00;;;2.80;;
68097;SDS011;54886;47.036;15.466;2023-07-31T18:29:37;4.47;;;2.70;;
68097;SDS011;54886;47.036;15.466;2023-07-31T18:35:24;5.80;;;2.97;;
68097;SDS011;54886;47.036;15.466;2023-07-31T18:41:12;3.95;;;2.50;;
68097;SDS011;54886;47.036;15.466;2023-07-31T18:43:38;6.03;;;2.60;;
68097;SDS011;54886;47.036;15.466;2023-07-31T18:46:03;3.40;;;2.40;;
68097;SDS011;54886;47.036;15.466;2023-07-31T18:48:29;4.10;;;2.47;;
68097;SDS011;54886;47.036;15.466;2023-07-31T18:50:56;5.18;;;2.50;;
68097;SDS011;54886;47.036;15.466;2023-07-31T18:53:22;5.10;;;2.67;;
68097;SDS011;54886;47.036;15.466;2023-07-31T18:55:48;4.07;;;2.30;;
68097;SDS011;54886;47.036;15.466;2023-07-31T19:01:35;4.80;;;2.70;;
68097;SDS011;54886;47.036;15.466;2023-07-31T19:04:01;6.07;;;2.63;;
68097;SDS011;54886;47.036;15.466;2023-07-31T19:06:28;4.60;;;2.58;;
68097;SDS011;54886;47.036;15.466;2023-07-31T19:08:55;4.13;;;2.80;;
68097;SDS011;54886;47.036;15.466;2023-07-31T19:11:21;4.38;;;2.80;;
68097;SDS011;54886;47.036;15.466;2023-07-31T19:13:46;5.53;;;2.80;;
68097;SDS011;54886;47.036;15.466;2023-07-31T19:16:12;4.70;;;2.65;;
68097;SDS011;54886;47.036;15.466;2023-07-31T19:21:59;7.80;;;2.92;;
68097;SDS011;54886;47.036;15.466;2023-07-31T19:24:27;4.55;;;2.85;;
68097;SDS011;54886;47.036;15.466;2023-07-31T19:26:53;5.30;;;3.00;;
68097;SDS011;54886;47.036;15.466;2023-07-31T19:29:19;4.75;;;2.60;;
68097;SDS011;54886;47.036;15.466;2023-07-31T19:31:44;6.18;;;3.40;;
68097;SDS011;54886;47.036;15.466;2023-07-31T19:37:32;7.45;;;3.95;;
68097;SDS011;54886;47.036;15.466;2023-07-31T19:39:57;7.70;;;3.45;;
68097;SDS011;54886;47.036;15.466;2023-07-31T19:42:23;7.63;;;3.75;;
68097;SDS011;54886;47.036;15.466;2023-07-31T19:44:48;8.02;;;3.80;;
68097;SDS011;54886;47.036;15.466;2023-07-31T19:47:14;7.32;;;3.92;;
68097;SDS011;54886;47.036;15.466;2023-07-31T19:53:02;7.60;;;3.75;;
68097;SDS011;54886;47.036;15.466;2023-07-31T19:55:27;5.72;;;3.47;;
68097;SDS011;54886;47.036;15.466;2023-07-31T19:57:54;6.80;;;3.92;;
68097;SDS011;54886;47.036;15.466;2023-07-31T20:00:20;7.90;;;3.53;;
68097;SDS011;54886;47.036;15.466;2023-07-31T20:02:46;6.43;;;3.70;;
68097;SDS011;54886;47.036;15.466;2023-07-31T20:05:12;7.45;;;3.88;;
68097;SDS011;54886;47.036;15.466;2023-07-31T20:07:38;5.90;;;3.45;;
68097;SDS011;54886;47.036;15.466;2023-07-31T20:13:25;6.25;;;3.38;;
68097;SDS011;54886;47.036;15.466;2023-07-31T20:15:50;6.93;;;3.47;;
68097;SDS011;54886;47.036;15.466;2023-07-31T20:18:16;6.10;;;3.28;;
68097;SDS011;54886;47.036;15.466;2023-07-31T20:20:42;5.18;;;3.20;;